createdAt,value
2016-12-05T00:04:46.449Z,21.7
2016-12-05T00:09:50.526Z,21.7
2016-12-05T00:14:54.945Z,21.7
2016-12-05T00:19:59.025Z,21.6
2016-12-05T00:25:03.106Z,21.6
2016-12-05T00:30:07.520Z,21.6
2016-12-05T00:35:11.932Z,21.6
2016-12-05T00:40:16.011Z,21.6
2016-12-05T00:45:20.429Z,21.6
2016-12-05T00:50:24.513Z,21.6
2016-12-05T00:55:28.925Z,21.6
2016-12-05T01:00:33.006Z,21.6
2016-12-05T01:05:37.086Z,21.6
2016-12-05T01:10:41.171Z,21.5
2016-12-05T01:15:45.248Z,21.5
2016-12-05T01:20:49.330Z,21.5
2016-12-05T01:25:54.081Z,21.5
2016-12-05T01:30:58.164Z,21.5
2016-12-05T01:36:02.575Z,21.5
2016-12-05T01:41:06.653Z,21.5
2016-12-05T01:46:10.727Z,21.5
2016-12-05T01:51:14.807Z,21.5
2016-12-05T01:56:19.227Z,21.4
2016-12-05T02:01:23.311Z,21.4
2016-12-05T02:06:27.386Z,21.4
2016-12-05T02:11:31.473Z,21.4
2016-12-05T02:16:36.227Z,21.4
2016-12-05T02:21:40.309Z,21.4
2016-12-05T02:26:44.719Z,21.4
2016-12-05T02:31:49.142Z,21.4
2016-12-05T02:36:53.889Z,21.4
2016-12-05T02:41:58.306Z,21.4
2016-12-05T02:47:02.724Z,21.3
2016-12-05T02:52:07.476Z,21.3
2016-12-05T02:57:11.564Z,21.3
2016-12-05T03:02:16.320Z,21.3
2016-12-05T03:07:20.400Z,21.3
2016-12-05T03:12:24.478Z,21.3
2016-12-05T03:17:28.554Z,21.3
2016-12-05T03:22:33.641Z,21.3
2016-12-05T03:27:38.721Z,21.3
2016-12-05T03:32:43.805Z,21.3
2016-12-05T03:37:48.219Z,21.3
2016-12-05T03:42:52.310Z,21.3
2016-12-05T03:47:56.385Z,21.3
2016-12-05T03:53:00.801Z,21.3
2016-12-05T03:58:05.879Z,21.3
2016-12-05T04:03:09.963Z,21.3
2016-12-05T04:08:14.378Z,21.2
2016-12-05T04:13:18.456Z,21.3
2016-12-05T04:18:22.534Z,21.2
2016-12-05T04:23:26.939Z,21.2
2016-12-05T04:28:31.021Z,21.2
2016-12-05T04:33:35.437Z,21.2
2016-12-05T04:38:39.847Z,21.3
2016-12-05T04:43:43.931Z,21.2
2016-12-05T04:48:48.350Z,21.3
2016-12-05T04:53:52.424Z,21.3
2016-12-05T04:58:56.506Z,21.3
2016-12-05T05:04:00.594Z,21.3
2016-12-05T05:09:04.681Z,21.3
2016-12-05T05:14:08.786Z,21.3
2016-12-05T05:19:12.878Z,21.3
2016-12-05T05:24:16.964Z,21.3
2016-12-05T05:29:21.047Z,21.3
2016-12-05T05:34:25.143Z,21.2
2016-12-05T05:39:29.577Z,21.3
2016-12-05T05:44:34.002Z,21.3
2016-12-05T05:49:38.084Z,21.3
2016-12-05T05:54:42.381Z,21.3
2016-12-05T05:59:46.471Z,21.4
2016-12-05T06:04:50.552Z,21.4
2016-12-05T06:09:54.640Z,21.5
2016-12-05T06:14:59.077Z,21.5
2016-12-05T06:20:03.494Z,21.5
2016-12-05T06:25:07.914Z,21.5
2016-12-05T06:30:12.337Z,21.6
2016-12-05T06:35:16.769Z,21.5
2016-12-05T06:40:20.854Z,21.5
2016-12-05T06:45:24.942Z,21.5
2016-12-05T06:50:29.026Z,21.4
2016-12-05T06:55:33.439Z,21.4
2016-12-05T07:00:37.856Z,21.4
2016-12-05T07:05:41.944Z,21.4
2016-12-05T07:10:46.029Z,21.4
2016-12-05T07:15:50.446Z,21.4
2016-12-05T07:20:55.201Z,21.4
2016-12-05T07:25:59.282Z,21.4
2016-12-05T07:31:04.040Z,21.4
2016-12-05T07:36:08.467Z,21.4
2016-12-05T07:41:12.884Z,21.3
2016-12-05T07:46:17.639Z,21.4
2016-12-05T07:51:21.726Z,21.3
2016-12-05T07:56:25.820Z,21.3
2016-12-05T08:01:30.032Z,21.4
2016-12-05T08:06:34.454Z,21.4
2016-12-05T08:11:38.743Z,21.5
2016-12-05T08:16:42.842Z,21.5
2016-12-05T08:21:47.263Z,21.5
2016-12-05T08:26:52.015Z,21.6
2016-12-05T08:31:56.766Z,21.6
2016-12-05T08:37:01.528Z,21.6
2016-12-05T08:42:05.611Z,21.6
2016-12-05T08:47:09.698Z,21.6
2016-12-05T08:52:13.781Z,21.6
2016-12-05T08:57:17.870Z,21.6
2016-12-05T09:02:21.948Z,21.6
2016-12-05T09:07:26.036Z,21.7
2016-12-05T09:12:30.785Z,21.7
2016-12-05T09:17:35.208Z,21.7
2016-12-05T09:22:39.964Z,21.7
2016-12-05T09:27:44.377Z,21.7
2016-12-05T09:32:48.463Z,21.7
2016-12-05T09:37:52.540Z,21.8
2016-12-05T09:42:56.627Z,21.8
2016-12-05T09:48:00.718Z,21.8
2016-12-05T09:53:05.471Z,21.8
2016-12-05T09:58:09.560Z,21.8
2016-12-05T10:03:13.994Z,21.8
2016-12-05T10:08:18.755Z,21.9
2016-12-05T10:13:22.842Z,21.9
2016-12-05T10:18:26.926Z,21.9
2016-12-05T10:23:31.015Z,22
2016-12-05T10:28:35.116Z,22
2016-12-05T10:33:40.545Z,22
2016-12-05T10:38:44.981Z,22
2016-12-05T10:43:49.395Z,22
2016-12-05T10:48:53.816Z,22
2016-12-05T10:53:57.903Z,22
2016-12-05T10:59:02.315Z,22
2016-12-05T11:04:06.447Z,22
2016-12-05T11:09:10.538Z,22
2016-12-05T11:14:14.707Z,22
2016-12-05T11:19:18.828Z,22
2016-12-05T11:24:23.238Z,22
2016-12-05T11:29:27.656Z,22.1
2016-12-05T11:34:32.078Z,22.1
2016-12-05T11:39:36.162Z,22.1
2016-12-05T11:44:40.248Z,22.1
2016-12-05T11:49:44.674Z,22.2
2016-12-05T11:54:48.758Z,22.2
2016-12-05T11:59:52.851Z,22.3
2016-12-05T12:04:57.947Z,22.3
2016-12-05T12:10:02.033Z,22.4
2016-12-05T12:15:06.788Z,22.4
2016-12-05T12:20:10.894Z,22.4
2016-12-05T12:25:15.652Z,22.5
2016-12-05T12:30:20.095Z,22.5
2016-12-05T12:35:24.189Z,22.6
2016-12-05T12:40:28.618Z,22.6
2016-12-05T12:45:33.393Z,22.6
2016-12-05T12:50:37.832Z,22.6
2016-12-05T12:55:42.253Z,22.6
2016-12-05T13:00:46.684Z,22.7
2016-12-05T13:05:50.775Z,22.7
2016-12-05T13:10:55.546Z,22.7
2016-12-05T13:15:59.995Z,22.8
2016-12-05T13:21:04.108Z,22.8
2016-12-05T13:26:08.237Z,22.8
2016-12-05T13:31:12.667Z,22.8
2016-12-05T13:36:32.058Z,22.8
2016-12-05T13:41:36.171Z,22.7
2016-12-05T13:46:40.866Z,22.7
2016-12-05T13:51:45.643Z,22.7
2016-12-05T13:56:50.103Z,22.7
2016-12-05T14:01:54.977Z,22.7
2016-12-05T14:06:59.748Z,22.7
2016-12-05T14:12:04.518Z,22.7
2016-12-05T14:17:08.939Z,22.6
2016-12-05T14:22:13.362Z,22.6
2016-12-05T14:27:17.451Z,22.6
2016-12-05T14:32:21.539Z,22.5
2016-12-05T14:37:25.966Z,22.5
2016-12-05T14:42:30.055Z,22.5
2016-12-05T14:47:34.489Z,22.5
2016-12-05T14:52:38.932Z,22.5
2016-12-05T14:57:43.042Z,22.5
2016-12-05T15:02:47.540Z,22.5
2016-12-05T15:07:51.986Z,22.4
2016-12-05T15:12:56.083Z,22.4
2016-12-05T15:18:00.514Z,22.4
2016-12-05T15:23:04.943Z,22.4
2016-12-05T15:28:09.020Z,22.4
2016-12-05T15:33:13.270Z,22.4
2016-12-05T15:38:17.688Z,22.3
2016-12-05T15:43:21.770Z,22.3
2016-12-05T15:48:26.216Z,22.3
2016-12-05T15:53:30.311Z,22.3
2016-12-05T15:58:34.419Z,22.3
2016-12-05T16:03:39.425Z,22.2
2016-12-05T16:08:44.291Z,22.2
2016-12-05T16:13:48.386Z,22.2
2016-12-05T16:18:52.481Z,22.2
2016-12-05T16:23:56.906Z,22.2
2016-12-05T16:29:01.330Z,22.2
2016-12-05T16:34:05.422Z,22.2
2016-12-05T16:39:09.841Z,22.2
2016-12-05T16:44:14.258Z,22.2
2016-12-05T16:49:18.890Z,22.2
2016-12-05T16:54:22.971Z,22.2
2016-12-05T16:59:27.549Z,22.2
2016-12-05T17:04:31.732Z,22.2
2016-12-05T17:09:35.850Z,22.2
2016-12-05T17:14:39.942Z,22.2
2016-12-05T17:19:44.368Z,22.1
2016-12-05T17:24:48.462Z,22.1
2016-12-05T17:29:52.581Z,22.1
2016-12-05T17:34:56.652Z,22.1
2016-12-05T17:40:00.739Z,22.1
2016-12-05T17:45:05.828Z,22.1
2016-12-05T17:50:10.241Z,22.1
2016-12-05T17:55:14.323Z,22.1
2016-12-05T18:00:19.435Z,22.1
2016-12-05T18:05:23.527Z,22.1
2016-12-05T18:10:27.629Z,22.1
2016-12-05T18:15:32.048Z,22.1
2016-12-05T18:20:36.466Z,22.1
2016-12-05T18:25:40.893Z,22.1
2016-12-05T18:30:44.972Z,22.1
2016-12-05T18:35:49.053Z,22.1
2016-12-05T18:40:53.472Z,22.1
2016-12-05T18:45:57.556Z,22
2016-12-05T18:51:02.643Z,22
2016-12-05T18:56:07.067Z,22
2016-12-05T19:01:11.491Z,22.1
2016-12-05T19:06:15.581Z,22.1
2016-12-05T19:11:19.998Z,22.1
2016-12-05T19:16:24.095Z,22.1
2016-12-05T19:21:28.521Z,22.1
2016-12-05T19:26:32.950Z,22.1
2016-12-05T19:31:38.054Z,22.2
2016-12-05T19:36:42.146Z,22.2
2016-12-05T19:41:46.243Z,22.2
2016-12-05T19:46:50.663Z,22.2
2016-12-05T19:51:54.759Z,22.2
2016-12-05T19:56:59.525Z,22.2
2016-12-05T20:02:03.615Z,22.3
2016-12-05T20:07:07.703Z,22.2
2016-12-05T20:12:11.845Z,22.3
2016-12-05T20:17:16.511Z,22.3
2016-12-05T20:22:21.271Z,22.3
2016-12-05T20:27:25.358Z,22.3
2016-12-05T20:32:29.782Z,22.3
2016-12-05T20:37:34.205Z,22.3
2016-12-05T20:42:38.970Z,22.3
2016-12-05T20:47:43.639Z,22.3
2016-12-05T20:52:48.128Z,22.3
2016-12-05T20:57:52.786Z,22.3
2016-12-05T21:02:57.897Z,22.2
2016-12-05T21:08:02.197Z,21.9
2016-12-05T21:13:06.965Z,21.6
2016-12-05T21:18:11.401Z,21.3
2016-12-05T21:23:16.160Z,21.1
2016-12-05T21:28:20.662Z,20.9
2016-12-05T21:33:25.080Z,20.8
2016-12-05T21:38:29.827Z,20.7
2016-12-05T21:43:34.913Z,20.6
2016-12-05T21:48:39.350Z,20.5
2016-12-05T21:53:44.017Z,20.4
2016-12-05T21:58:48.108Z,20.3
2016-12-05T22:03:52.180Z,20.3
2016-12-05T22:08:56.261Z,20.2
2016-12-05T22:14:00.684Z,20.2
2016-12-05T22:19:04.760Z,20.1
2016-12-05T22:24:08.831Z,20
2016-12-05T22:29:12.914Z,20
2016-12-05T22:34:17.666Z,20
2016-12-05T22:39:22.076Z,19.9
2016-12-05T22:44:26.175Z,19.9
2016-12-05T22:49:30.594Z,19.9
2016-12-05T22:54:35.002Z,19.8
2016-12-05T22:59:39.746Z,19.8
2016-12-05T23:04:44.829Z,19.7
2016-12-05T23:09:49.245Z,19.7
2016-12-05T23:14:53.317Z,19.7
2016-12-05T23:19:57.393Z,19.7
2016-12-05T23:25:01.818Z,19.7
2016-12-05T23:30:06.558Z,19.7
2016-12-05T23:35:11.304Z,19.7
2016-12-05T23:40:15.381Z,19.6
2016-12-05T23:45:19.790Z,19.6
2016-12-05T23:50:23.862Z,19.6
2016-12-05T23:55:28.609Z,19.5
